Time;durP1;ratioP1;P1;durP2;ratioP2;P2;SDS_P1;SDS_P2;PMS_P1;PMS_P2;Temp;Humidity;BMP_temperature;BMP_pressure;BME280_temperature;BME280_humidity;BME280_pressure;Samples;Min_cycle;Max_cycle;Signal;HPM_P1;HPM_P2
2021/03/21 00:00:31;;;;;;;6.53;3.57;;;1.60;61.40;;;;;;5116420;28;20423;-80
2021/03/21 00:02:58;;;;;;;4.80;3.23;;;1.70;61.00;;;;;;5116255;28;20436;-79
2021/03/21 00:05:24;;;;;;;5.07;3.90;;;1.70;60.80;;;;;;5115692;28;20431;-86
2021/03/21 00:07:55;;;;;;;4.37;3.60;;;1.60;61.90;;;;;;5116743;28;20891;-79
2021/03/21 00:10:23;;;;;;;4.20;3.13;;;1.70;61.70;;;;;;5114766;28;20451;-79
2021/03/21 00:12:49;;;;;;;4.47;3.50;;;1.60;61.70;;;;;;5115674;28;20476;-79
2021/03/21 00:15:16;;;;;;;3.90;3.20;;;1.60;63.30;;;;;;5115782;28;20435;-80
2021/03/21 00:17:42;;;;;;;5.20;3.70;;;1.60;62.20;;;;;;5115808;28;20473;-88
2021/03/21 00:20:12;;;;;;;5.90;3.10;;;1.50;61.00;;;;;;5116547;28;20508;-88
2021/03/21 00:22:38;;;;;;;4.03;3.43;;;1.50;62.80;;;;;;5116467;28;20430;-88
2021/03/21 00:25:07;;;;;;;5.67;3.70;;;1.50;61.80;;;;;;5116419;28;20795;-88
2021/03/21 00:27:34;;;;;;;3.43;3.13;;;1.60;61.90;;;;;;5115862;28;20524;-80
2021/03/21 00:30:01;;;;;;;4.73;3.30;;;1.60;61.90;;;;;;5115433;28;20487;-80
2021/03/21 00:32:27;;;;;;;3.50;3.20;;;1.60;60.90;;;;;;5115160;28;20903;-80
2021/03/21 00:34:53;;;;;;;5.03;3.50;;;1.60;61.30;;;;;;5115071;28;21007;-80
2021/03/21 00:37:20;;;;;;;4.53;3.70;;;1.60;62.50;;;;;;5115288;28;20500;-79
2021/03/21 00:39:46;;;;;;;7.43;3.43;;;1.60;63.90;;;;;;5115042;28;20436;-80
2021/03/21 00:42:12;;;;;;;3.70;3.40;;;1.50;62.30;;;;;;5115351;28;20410;-80
2021/03/21 00:44:39;;;;;;;7.40;4.93;;;1.50;62.60;;;;;;5115215;28;20446;-80
2021/03/21 00:47:06;;;;;;;4.67;3.30;;;1.50;62.00;;;;;;5115644;28;20470;-80
2021/03/21 00:49:32;;;;;;;6.23;3.13;;;1.50;63.90;;;;;;5114916;28;20483;-79
2021/03/21 00:51:59;;;;;;;4.80;3.23;;;1.50;63.90;;;;;;5114727;28;20969;-79
2021/03/21 00:54:25;;;;;;;3.97;3.33;;;1.50;62.70;;;;;;5114920;28;20439;-79
2021/03/21 00:56:51;;;;;;;4.90;3.73;;;1.60;64.10;;;;;;5115086;28;20468;-80
2021/03/21 00:59:17;;;;;;;3.10;2.73;;;1.60;64.30;;;;;;5114912;28;20439;-80
2021/03/21 01:01:44;;;;;;;4.53;3.30;;;1.60;63.00;;;;;;5114887;28;20432;-80
2021/03/21 01:04:12;;;;;;;4.70;3.23;;;1.60;63.20;;;;;;5114829;28;20439;-80
2021/03/21 01:06:39;;;;;;;5.47;3.70;;;1.50;61.80;;;;;;5114693;28;20471;-80
2021/03/21 01:09:09;;;;;;;6.80;3.80;;;1.50;63.00;;;;;;5114325;28;20481;-80
2021/03/21 01:11:37;;;;;;;5.17;3.73;;;1.50;62.50;;;;;;5114712;28;20435;-80
2021/03/21 01:14:05;;;;;;;4.30;3.50;;;1.60;62.80;;;;;;5114411;28;20439;-80
2021/03/21 01:16:34;;;;;;;4.20;3.30;;;1.60;61.50;;;;;;5114766;28;20468;-79
2021/03/21 01:19:02;;;;;;;4.13;3.60;;;1.40;60.90;;;;;;5113732;28;20447;-80
2021/03/21 01:21:34;;;;;;;3.73;3.03;;;1.50;62.90;;;;;;5114583;28;20406;-80
2021/03/21 01:24:01;;;;;;;4.90;3.27;;;1.50;62.00;;;;;;5114575;28;20424;-79
2021/03/21 01:26:29;;;;;;;5.03;3.10;;;1.60;63.30;;;;;;5114040;28;20954;-80
2021/03/21 01:28:57;;;;;;;4.27;3.13;;;1.60;61.50;;;;;;5114289;28;20475;-80
2021/03/21 01:31:24;;;;;;;7.17;3.43;;;1.50;61.40;;;;;;5114375;28;20427;-80
2021/03/21 01:33:51;;;;;;;3.50;2.67;;;1.50;61.60;;;;;;5114919;28;20455;-79
2021/03/21 01:36:22;;;;;;;4.10;2.90;;;1.50;61.60;;;;;;5114261;28;20418;-80
2021/03/21 01:38:50;;;;;;;4.30;2.77;;;1.50;62.10;;;;;;5114908;28;20423;-79
2021/03/21 01:41:21;;;;;;;6.80;2.93;;;1.60;61.90;;;;;;5114289;28;20447;-79
2021/03/21 01:43:48;;;;;;;2.97;2.53;;;1.60;60.90;;;;;;5114252;28;20750;-79
2021/03/21 01:46:19;;;;;;;3.83;3.03;;;1.50;59.90;;;;;;5115114;28;20806;-80
2021/03/21 01:48:48;;;;;;;3.70;2.70;;;1.50;59.70;;;;;;5114078;28;20450;-80
2021/03/21 01:51:20;;;;;;;4.87;3.13;;;1.40;60.20;;;;;;5113719;28;20954;-80
2021/03/21 01:53:51;;;;;;;4.67;2.87;;;1.50;61.00;;;;;;5114331;28;20435;-86
2021/03/21 01:56:18;;;;;;;7.00;3.13;;;1.60;60.20;;;;;;5114115;28;20463;-88
2021/03/21 01:58:47;;;;;;;7.33;3.23;;;1.60;61.90;;;;;;5114572;28;20424;-88
2021/03/21 02:01:17;;;;;;;4.00;3.30;;;1.60;61.40;;;;;;5114676;28;20428;-88
2021/03/21 02:03:43;;;;;;;3.80;2.73;;;1.60;60.60;;;;;;5114559;28;20443;-88
2021/03/21 02:06:29;;;;;;;4.80;2.70;;;1.50;61.20;;;;;;5114286;28;20450;-88
2021/03/21 02:09:01;;;;;;;4.73;3.27;;;1.50;60.60;;;;;;5113480;28;20442;-79
2021/03/21 02:11:43;;;;;;;5.60;3.57;;;1.50;61.50;;;;;;5113793;28;20440;-79
2021/03/21 02:14:18;;;;;;;3.33;3.03;;;1.50;62.00;;;;;;5113477;28;20406;-79
2021/03/21 02:16:52;;;;;;;3.03;2.47;;;1.60;62.20;;;;;;5113683;28;20444;-79
2021/03/21 02:19:39;;;;;;;5.17;3.00;;;1.60;62.60;;;;;;5113750;28;20427;-79
2021/03/21 02:22:12;;;;;;;4.17;2.87;;;1.50;60.50;;;;;;5113727;28;20446;-79
2021/03/21 02:25:24;;;;;;;3.53;2.83;;;1.50;60.20;;;;;;5113709;28;20435;-79
2021/03/21 02:28:04;;;;;;;3.50;2.40;;;1.50;61.80;;;;;;5076837;28;20478;-79
2021/03/21 02:30:38;;;;;;;6.07;3.40;;;1.50;61.50;;;;;;5117308;28;20470;-79
2021/03/21 02:33:09;;;;;;;4.03;3.00;;;1.50;62.50;;;;;;5117503;28;20902;-79
2021/03/21 02:35:42;;;;;;;3.67;2.53;;;1.50;63.60;;;;;;5117805;28;20412;-79
2021/03/21 02:38:12;;;;;;;5.33;2.90;;;1.50;62.00;;;;;;5117672;28;20478;-79
2021/03/21 02:40:42;;;;;;;3.43;2.73;;;1.50;61.50;;;;;;5117676;28;20441;-79
2021/03/21 02:43:13;;;;;;;3.60;3.10;;;1.50;62.20;;;;;;5117678;28;20798;-79
2021/03/21 02:45:43;;;;;;;5.87;3.10;;;1.50;62.40;;;;;;5117313;28;20902;-79
2021/03/21 02:48:15;;;;;;;5.40;3.40;;;1.60;62.70;;;;;;5117108;28;20973;-79
2021/03/21 02:50:46;;;;;;;2.37;2.10;;;1.60;62.30;;;;;;5117390;28;20519;-79
2021/03/21 02:53:17;;;;;;;3.53;2.97;;;1.60;63.00;;;;;;5117478;28;20479;-79
2021/03/21 02:55:47;;;;;;;6.73;3.70;;;1.60;63.30;;;;;;5117022;28;20482;-79
2021/03/21 02:58:18;;;;;;;2.93;2.73;;;1.60;63.20;;;;;;5116933;28;20878;-79
2021/03/21 03:00:50;;;;;;;4.57;3.00;;;1.60;63.70;;;;;;5117265;28;20413;-79
2021/03/21 03:03:20;;;;;;;3.60;3.30;;;1.50;62.40;;;;;;5117412;28;20488;-79
2021/03/21 03:05:50;;;;;;;4.00;3.60;;;1.60;62.80;;;;;;5117455;28;20443;-79
2021/03/21 03:08:21;;;;;;;3.73;2.80;;;1.50;63.10;;;;;;5117064;28;20458;-79
2021/03/21 03:10:51;;;;;;;5.20;3.13;;;1.60;63.20;;;;;;5117028;28;20463;-79
2021/03/21 03:13:21;;;;;;;3.57;2.37;;;1.50;63.30;;;;;;5116744;28;20881;-79
2021/03/21 03:15:49;;;;;;;4.80;2.97;;;1.40;63.90;;;;;;5116980;28;20442;-79
2021/03/21 03:18:32;;;;;;;4.03;3.00;;;1.50;64.20;;;;;;5117034;28;20441;-79
2021/03/21 03:21:10;;;;;;;3.47;2.63;;;1.50;63.40;;;;;;5116966;28;20840;-79
2021/03/21 03:23:43;;;;;;;4.20;3.07;;;1.50;64.60;;;;;;5117305;28;20430;-87
2021/03/21 03:26:15;;;;;;;5.33;3.03;;;1.50;64.00;;;;;;5117129;28;20921;-87
2021/03/21 03:28:48;;;;;;;3.80;3.27;;;1.60;65.10;;;;;;5117417;28;20438;-88
2021/03/21 03:31:20;;;;;;;4.90;2.93;;;1.60;65.20;;;;;;5117168;28;20438;-88
2021/03/21 03:33:48;;;;;;;5.67;3.30;;;1.60;65.10;;;;;;5117083;28;20914;-88
2021/03/21 03:36:16;;;;;;;5.20;3.80;;;1.60;65.10;;;;;;5117173;28;20451;-88
2021/03/21 03:38:45;;;;;;;6.27;3.00;;;1.60;66.10;;;;;;5116912;28;20443;-88
2021/03/21 03:41:21;;;;;;;5.60;3.10;;;1.60;64.80;;;;;;5116231;28;20447;-87
2021/03/21 03:43:57;;;;;;;4.90;3.10;;;1.50;65.00;;;;;;5117079;28;20423;-88
2021/03/21 03:46:34;;;;;;;3.73;3.30;;;1.50;65.30;;;;;;5117142;28;20439;-88
2021/03/21 03:49:09;;;;;;;4.13;3.47;;;1.50;65.90;;;;;;5116549;28;20467;-88
2021/03/21 03:51:45;;;;;;;4.37;3.20;;;1.50;66.30;;;;;;5117012;28;20480;-88
2021/03/21 03:54:21;;;;;;;4.00;3.40;;;1.50;67.00;;;;;;5117109;28;20442;-88
2021/03/21 03:56:52;;;;;;;4.97;3.60;;;1.50;66.30;;;;;;5116444;28;21032;-88
2021/03/21 03:59:28;;;;;;;4.43;3.20;;;1.50;66.90;;;;;;5116690;28;20424;-88
2021/03/21 04:02:02;;;;;;;4.30;3.63;;;1.50;66.70;;;;;;5116500;28;20412;-87
2021/03/21 04:04:37;;;;;;;5.10;4.10;;;1.40;66.30;;;;;;5116543;28;20478;-79
2021/03/21 04:07:16;;;;;;;5.60;3.20;;;1.40;66.20;;;;;;5116159;28;20457;-79
2021/03/21 04:09:50;;;;;;;3.50;3.17;;;1.40;66.20;;;;;;5116214;28;20463;-79
2021/03/21 04:12:23;;;;;;;3.93;3.17;;;1.40;66.80;;;;;;5115898;28;20435;-79
2021/03/21 04:14:55;;;;;;;6.30;3.30;;;1.50;67.70;;;;;;5115910;28;20458;-79
2021/03/21 04:17:27;;;;;;;3.40;3.10;;;1.50;68.10;;;;;;5115730;28;20470;-79
2021/03/21 04:19:59;;;;;;;5.07;3.27;;;1.50;68.80;;;;;;5115759;28;20438;-79
2021/03/21 04:22:31;;;;;;;5.40;3.70;;;1.50;67.90;;;;;;5115580;28;20435;-79
2021/03/21 04:25:04;;;;;;;3.47;3.00;;;1.50;67.60;;;;;;5116445;28;20450;-87
2021/03/21 04:27:35;;;;;;;5.00;3.07;;;1.50;68.60;;;;;;5116202;28;20474;-88
2021/03/21 04:30:06;;;;;;;3.70;3.17;;;1.60;69.20;;;;;;5116221;28;20459;-87
2021/03/21 04:32:37;;;;;;;7.03;3.40;;;1.50;68.20;;;;;;5115868;28;20484;-87
2021/03/21 04:35:08;;;;;;;5.33;3.23;;;1.50;68.80;;;;;;5116092;28;20442;-88
2021/03/21 04:37:34;;;;;;;6.30;3.20;;;1.50;69.30;;;;;;5115966;28;20459;-88
2021/03/21 04:40:02;;;;;;;4.50;3.40;;;1.50;68.90;;;;;;5116037;28;20484;-88
2021/03/21 04:42:36;;;;;;;6.07;3.87;;;1.60;70.00;;;;;;5116487;28;20524;-88
2021/03/21 04:45:07;;;;;;;4.07;3.60;;;1.50;68.30;;;;;;5115894;28;20428;-87
2021/03/21 04:47:37;;;;;;;4.97;3.20;;;1.50;68.20;;;;;;5115304;28;20965;-87
2021/03/21 04:50:05;;;;;;;5.33;3.27;;;1.50;68.50;;;;;;5115596;28;21035;-88
2021/03/21 04:52:40;;;;;;;4.67;3.60;;;1.50;69.20;;;;;;5115785;28;20456;-88
2021/03/21 04:55:11;;;;;;;3.83;3.40;;;1.50;69.90;;;;;;5115444;28;20903;-88
2021/03/21 04:57:43;;;;;;;5.07;3.53;;;1.50;68.80;;;;;;5115326;28;20463;-88
2021/03/21 05:00:15;;;;;;;5.00;3.77;;;1.50;69.50;;;;;;5115689;28;20430;-87
2021/03/21 05:02:46;;;;;;;3.47;3.17;;;1.50;70.40;;;;;;5115310;28;20945;-87
2021/03/21 05:05:16;;;;;;;3.10;2.83;;;1.50;70.80;;;;;;5115561;28;20435;-87
2021/03/21 05:07:47;;;;;;;3.63;3.23;;;1.50;70.40;;;;;;5115078;28;20462;-87
2021/03/21 05:10:20;;;;;;;4.47;3.53;;;1.50;70.30;;;;;;5115429;28;20829;-87
2021/03/21 05:12:51;;;;;;;4.97;3.00;;;1.50;70.80;;;;;;5116017;28;20778;-85
2021/03/21 05:15:23;;;;;;;4.60;3.23;;;1.50;70.80;;;;;;5114864;28;20402;-85
2021/03/21 05:17:59;;;;;;;3.70;3.13;;;1.50;71.60;;;;;;5114695;28;20459;-85
2021/03/21 05:20:34;;;;;;;5.10;3.20;;;1.50;70.70;;;;;;5114522;28;20427;-85
2021/03/21 05:23:18;;;;;;;3.60;3.00;;;1.50;71.10;;;;;;5114766;28;20521;-85
2021/03/21 05:25:51;;;;;;;7.20;3.93;;;1.50;70.40;;;;;;5114693;28;20431;-85
2021/03/21 05:28:24;;;;;;;7.10;2.87;;;1.50;70.90;;;;;;5114294;28;21001;-85
2021/03/21 05:30:50;;;;;;;5.13;2.80;;;1.50;71.00;;;;;;5114485;28;20480;-86
2021/03/21 05:33:17;;;;;;;4.63;3.03;;;1.50;70.50;;;;;;5114400;28;20447;-85
2021/03/21 05:35:44;;;;;;;4.63;3.47;;;1.50;70.50;;;;;;5114724;28;20427;-85
2021/03/21 05:38:21;;;;;;;3.30;2.60;;;1.50;70.90;;;;;;5115802;28;20466;-87
2021/03/21 05:41:26;;;;;;;4.20;3.30;;;1.50;70.80;;;;;;5114616;28;20409;-87
2021/03/21 05:44:40;;;;;;;3.60;2.80;;;1.50;70.40;;;;;;5096511;28;20862;-79
2021/03/21 05:47:42;;;;;;;4.00;3.27;;;1.60;72.00;;;;;;5114798;28;20516;-88
2021/03/21 05:50:45;;;;;;;3.10;2.80;;;1.60;71.40;;;;;;5114567;28;20515;-79
2021/03/21 05:54:06;;;;;;;4.20;3.60;;;1.60;71.50;;;;;;5114025;28;20434;-78
2021/03/21 05:57:01;;;;;;;3.70;3.03;;;1.60;71.90;;;;;;5050900;28;20477;-79
2021/03/21 05:59:46;;;;;;;3.47;3.13;;;1.60;71.80;;;;;;5091838;28;20439;-79
2021/03/21 06:02:47;;;;;;;5.43;3.03;;;1.60;73.00;;;;;;5093615;28;20436;-79
2021/03/21 06:06:01;;;;;;;4.40;2.90;;;1.60;71.60;;;;;;5092633;28;20444;-79
2021/03/21 06:08:41;;;;;;;7.73;3.20;;;1.60;71.60;;;;;;5082558;28;20472;-79
2021/03/21 06:11:45;;;;;;;4.30;2.80;;;1.70;73.10;;;;;;5093119;28;20467;-79
2021/03/21 06:14:44;;;;;;;3.07;2.77;;;1.70;72.00;;;;;;5093192;28;20524;-79
2021/03/21 06:17:22;;;;;;;4.53;3.00;;;1.80;72.20;;;;;;5089513;28;20991;-79
2021/03/21 06:20:03;;;;;;;3.13;2.43;;;1.90;72.90;;;;;;5093138;28;20861;-78
2021/03/21 06:22:53;;;;;;;3.97;2.60;;;1.90;72.70;;;;;;5093202;28;20435;-79
2021/03/21 06:25:43;;;;;;;3.00;2.80;;;1.90;72.50;;;;;;5093384;28;20424;-79
2021/03/21 06:28:45;;;;;;;3.67;2.93;;;1.90;72.60;;;;;;5084747;28;20893;-79
2021/03/21 06:31:39;;;;;;;3.80;3.10;;;1.80;72.70;;;;;;5093282;28;20468;-79
2021/03/21 06:34:16;;;;;;;2.83;2.63;;;1.80;72.90;;;;;;5093277;28;20478;-79
2021/03/21 06:36:48;;;;;;;6.70;3.20;;;1.80;72.90;;;;;;5092850;28;20529;-79
2021/03/21 06:39:53;;;;;;;3.60;3.00;;;1.80;73.80;;;;;;5092953;28;20507;-79
2021/03/21 06:42:58;;;;;;;4.07;2.90;;;1.80;74.80;;;;;;5092883;28;20915;-79
2021/03/21 06:46:14;;;;;;;3.40;3.10;;;1.80;73.30;;;;;;5093239;28;20458;-78
2021/03/21 06:49:12;;;;;;;3.03;2.50;;;1.80;73.70;;;;;;5093194;28;20399;-79
2021/03/21 06:51:51;;;;;;;3.90;2.83;;;1.90;73.60;;;;;;5092862;28;20916;-79
2021/03/21 06:54:35;;;;;;;3.00;2.53;;;1.90;74.00;;;;;;5093155;28;20428;-79
2021/03/21 06:57:56;;;;;;;2.90;2.37;;;1.90;73.80;;;;;;5111881;28;20478;-78
2021/03/21 07:00:49;;;;;;;2.83;2.43;;;1.90;73.30;;;;;;5113375;28;20434;-79
2021/03/21 07:03:52;;;;;;;3.73;2.40;;;1.90;73.50;;;;;;5106313;28;20516;-79
2021/03/21 07:07:07;;;;;;;2.73;2.50;;;2.00;74.40;;;;;;5055696;28;20448;-79
2021/03/21 07:10:24;;;;;;;4.97;3.17;;;2.10;75.10;;;;;;5112878;28;20478;-79
2021/03/21 07:13:26;;;;;;;4.83;2.80;;;2.20;75.10;;;;;;5113261;28;20447;-79
2021/03/21 07:16:37;;;;;;;3.43;2.70;;;2.20;74.50;;;;;;5114074;28;20456;-79
2021/03/21 07:19:36;;;;;;;3.10;2.80;;;2.20;73.10;;;;;;5116684;28;20456;-78
2021/03/21 07:22:40;;;;;;;4.87;3.20;;;2.20;73.70;;;;;;5116542;28;20455;-79
2021/03/21 07:25:42;;;;;;;4.40;3.40;;;2.20;73.50;;;;;;5116523;28;20450;-79
2021/03/21 07:28:26;;;;;;;2.90;2.17;;;2.20;74.30;;;;;;5116416;28;20458;-79
2021/03/21 07:31:00;;;;;;;6.67;3.00;;;2.20;74.40;;;;;;5116362;28;20471;-78
2021/03/21 07:33:35;;;;;;;3.17;2.80;;;2.30;74.80;;;;;;5116699;28;20435;-78
2021/03/21 07:36:12;;;;;;;3.27;3.00;;;2.30;73.90;;;;;;5116406;28;20450;-78
2021/03/21 07:38:53;;;;;;;4.80;3.40;;;2.30;74.60;;;;;;5116614;28;20430;-79
2021/03/21 07:41:39;;;;;;;2.60;2.17;;;2.30;74.90;;;;;;5116532;28;20423;-78
2021/03/21 07:44:41;;;;;;;3.93;2.90;;;2.40;74.90;;;;;;5116536;28;20431;-78
2021/03/21 07:47:23;;;;;;;3.37;2.60;;;2.40;75.50;;;;;;5116385;28;20480;-79
2021/03/21 07:50:12;;;;;;;3.10;2.80;;;2.50;76.00;;;;;;5115990;28;20891;-79
2021/03/21 07:53:06;;;;;;;5.63;2.90;;;2.60;75.00;;;;;;5116339;28;20423;-78
2021/03/21 07:55:39;;;;;;;3.33;2.90;;;2.50;74.40;;;;;;5115775;28;20843;-85
2021/03/21 07:58:19;;;;;;;4.63;3.50;;;2.60;75.80;;;;;;5116261;28;20463;-86
2021/03/21 08:00:46;;;;;;;3.50;2.70;;;2.60;76.40;;;;;;5116372;28;20434;-85
2021/03/21 08:03:24;;;;;;;3.60;2.93;;;2.70;76.40;;;;;;5116160;28;20446;-85
2021/03/21 08:05:56;;;;;;;3.70;3.27;;;2.70;76.70;;;;;;5116003;28;20914;-86
2021/03/21 08:08:25;;;;;;;4.03;3.10;;;2.80;76.90;;;;;;5116131;28;20459;-86
2021/03/21 08:10:56;;;;;;;3.43;3.10;;;2.80;77.10;;;;;;5116103;28;20588;-86
2021/03/21 08:13:29;;;;;;;4.67;3.30;;;2.80;77.50;;;;;;5116284;28;20431;-86
2021/03/21 08:15:56;;;;;;;3.60;3.00;;;2.80;77.80;;;;;;5115679;28;20440;-86
2021/03/21 08:18:34;;;;;;;3.00;2.57;;;2.90;78.00;;;;;;5115888;28;20473;-86
2021/03/21 08:21:03;;;;;;;3.60;2.80;;;2.90;77.20;;;;;;5115600;28;20410;-85
2021/03/21 08:23:32;;;;;;;2.80;2.60;;;2.90;77.50;;;;;;5115945;28;20448;-85
2021/03/21 08:26:01;;;;;;;4.83;2.97;;;3.00;77.90;;;;;;5115501;28;20427;-85
2021/03/21 08:28:36;;;;;;;4.77;2.83;;;3.00;77.50;;;;;;5115304;28;20467;-83
2021/03/21 08:31:05;;;;;;;5.10;3.10;;;3.10;77.40;;;;;;5115257;28;20469;-85
2021/03/21 08:33:34;;;;;;;3.10;2.67;;;3.20;78.00;;;;;;5115352;28;20424;-85
2021/03/21 08:36:25;;;;;;;3.47;2.60;;;3.20;77.50;;;;;;5115510;28;20432;-84
2021/03/21 08:38:59;;;;;;;4.83;3.00;;;3.30;77.00;;;;;;5100122;28;20455;-79
2021/03/21 08:41:28;;;;;;;3.10;2.80;;;3.30;76.50;;;;;;5115385;28;20508;-78
2021/03/21 08:44:00;;;;;;;2.73;2.50;;;3.30;77.30;;;;;;5115397;28;20419;-78
2021/03/21 08:46:28;;;;;;;3.77;2.53;;;3.50;77.10;;;;;;5115212;28;20427;-78
2021/03/21 08:49:05;;;;;;;2.63;2.43;;;3.50;76.10;;;;;;5115225;28;20423;-78
2021/03/21 08:51:39;;;;;;;5.27;3.30;;;3.50;76.20;;;;;;5114903;28;20431;-78
2021/03/21 08:54:14;;;;;;;4.30;3.37;;;3.40;75.60;;;;;;5114853;28;20893;-78
2021/03/21 08:56:41;;;;;;;4.33;2.70;;;3.60;75.90;;;;;;5114577;28;20474;-78
2021/03/21 08:59:37;;;;;;;3.87;2.90;;;3.70;76.60;;;;;;5115031;28;20419;-79
2021/03/21 09:02:06;;;;;;;5.30;3.20;;;3.70;76.00;;;;;;5099220;28;20488;-78
2021/03/21 09:04:34;;;;;;;3.20;2.47;;;3.80;76.50;;;;;;5114515;28;20992;-78
2021/03/21 09:07:23;;;;;;;2.53;2.30;;;3.80;74.70;;;;;;5114730;28;20469;-78
2021/03/21 09:10:08;;;;;;;3.30;2.50;;;3.90;75.50;;;;;;5114777;28;20467;-78
2021/03/21 09:12:36;;;;;;;3.20;2.90;;;3.90;74.70;;;;;;5114811;28;20488;-78
2021/03/21 09:15:32;;;;;;;3.67;2.63;;;3.90;73.10;;;;;;5114625;28;20492;-78
2021/03/21 09:18:06;;;;;;;3.20;2.33;;;4.00;74.70;;;;;;5114492;28;20473;-78
2021/03/21 09:20:34;;;;;;;2.27;2.07;;;4.00;73.50;;;;;;5114770;28;20423;-78
2021/03/21 09:23:27;;;;;;;4.03;3.13;;;4.10;73.50;;;;;;5114469;28;20492;-79
2021/03/21 09:25:56;;;;;;;5.63;3.77;;;4.10;72.80;;;;;;5114497;28;20436;-78
2021/03/21 09:28:24;;;;;;;5.13;3.77;;;4.10;73.50;;;;;;5114027;28;21064;-79
2021/03/21 09:30:52;;;;;;;5.77;3.50;;;4.20;74.50;;;;;;5114328;28;20479;-79
2021/03/21 09:33:24;;;;;;;3.33;3.00;;;4.30;75.10;;;;;;5114311;28;20451;-79
2021/03/21 09:35:57;;;;;;;3.67;2.60;;;4.10;72.80;;;;;;5114873;28;20423;-78
2021/03/21 09:38:28;;;;;;;3.60;2.97;;;4.20;72.10;;;;;;5113543;28;20466;-78
2021/03/21 09:40:56;;;;;;;4.27;3.23;;;4.10;73.00;;;;;;5114281;28;20431;-78
2021/03/21 09:43:28;;;;;;;3.57;3.27;;;4.10;73.80;;;;;;5114221;28;20447;-79
2021/03/21 09:46:15;;;;;;;3.67;2.80;;;4.20;73.90;;;;;;5114227;28;20438;-79
2021/03/21 09:48:51;;;;;;;4.67;3.37;;;4.20;73.50;;;;;;5114214;28;20438;-83
2021/03/21 09:51:23;;;;;;;6.90;3.90;;;4.20;73.70;;;;;;5113724;28;20470;-84
2021/03/21 09:54:06;;;;;;;4.10;2.93;;;4.30;74.50;;;;;;5113799;28;21034;-84
2021/03/21 09:56:43;;;;;;;5.37;3.30;;;4.40;74.50;;;;;;5113503;28;20876;-84
2021/03/21 09:59:19;;;;;;;4.80;3.23;;;4.40;72.80;;;;;;5114069;28;20424;-85
2021/03/21 10:01:50;;;;;;;5.03;3.70;;;4.40;74.60;;;;;;5113879;28;20419;-84
2021/03/21 10:04:27;;;;;;;4.27;3.27;;;4.50;74.30;;;;;;5114234;28;20522;-83
2021/03/21 10:06:59;;;;;;;4.30;3.60;;;4.60;75.40;;;;;;5113510;28;20992;-83
2021/03/21 10:09:31;;;;;;;3.87;3.23;;;4.70;75.10;;;;;;5113455;28;20434;-84
2021/03/21 10:12:04;;;;;;;3.50;3.20;;;4.80;73.50;;;;;;5114134;28;20427;-87
2021/03/21 10:14:57;;;;;;;4.17;3.43;;;4.90;73.80;;;;;;5114104;28;20473;-87
2021/03/21 10:17:52;;;;;;;4.17;3.60;;;5.00;72.60;;;;;;5113984;28;20471;-87
2021/03/21 10:20:40;;;;;;;6.20;3.13;;;5.00;72.40;;;;;;5114397;28;20434;-87
2021/03/21 10:23:06;;;;;;;3.80;3.40;;;5.10;73.60;;;;;;5113711;28;20454;-87
2021/03/21 10:26:03;;;;;;;4.40;3.63;;;5.20;75.00;;;;;;5114064;28;20508;-86
2021/03/21 10:28:45;;;;;;;7.40;3.33;;;5.40;73.70;;;;;;5113966;28;20467;-87
2021/03/21 10:31:30;;;;;;;6.60;4.00;;;5.50;72.80;;;;;;5114098;28;20880;-87
2021/03/21 10:34:46;;;;;;;5.13;3.40;;;5.80;73.70;;;;;;5114118;28;20438;-87
2021/03/21 10:37:33;;;;;;;5.43;4.30;;;6.10;72.10;;;;;;5113927;28;20462;-87
2021/03/21 10:40:04;;;;;;;6.03;5.00;;;6.30;71.60;;;;;;5113410;28;20930;-87
2021/03/21 10:42:44;;;;;;;6.10;4.40;;;6.40;71.40;;;;;;5113921;28;20424;-87
2021/03/21 10:45:14;;;;;;;7.40;5.13;;;6.60;72.00;;;;;;5113859;28;20427;-87
2021/03/21 10:47:50;;;;;;;9.10;5.37;;;6.70;71.30;;;;;;5113851;28;20463;-87
2021/03/21 10:50:59;;;;;;;8.47;5.63;;;6.70;71.60;;;;;;5115358;28;20462;-86
2021/03/21 10:53:29;;;;;;;8.10;5.60;;;6.90;72.50;;;;;;5117472;28;20454;-87
2021/03/21 10:56:18;;;;;;;7.47;5.77;;;7.10;72.10;;;;;;5117516;28;20470;-88
2021/03/21 10:59:16;;;;;;;12.27;8.10;;;7.20;73.60;;;;;;5113764;28;20498;-87
2021/03/21 11:01:44;;;;;;;13.13;8.50;;;7.30;75.60;;;;;;5117524;28;20898;-88
2021/03/21 11:04:39;;;;;;;12.47;8.43;;;7.40;76.90;;;;;;5118102;28;20423;-88
2021/03/21 11:07:14;;;;;;;12.40;8.40;;;7.20;78.30;;;;;;5117848;28;20470;-88
2021/03/21 11:09:55;;;;;;;11.77;8.20;;;7.10;79.00;;;;;;5118124;28;20469;-88
2021/03/21 11:12:32;;;;;;;14.50;8.20;;;7.00;78.60;;;;;;5118062;28;20484;-88
2021/03/21 11:15:15;;;;;;;11.40;8.03;;;7.00;79.60;;;;;;5117557;28;20431;-88
2021/03/21 11:17:43;;;;;;;13.23;8.43;;;6.90;79.30;;;;;;5124871;28;20466;-88
2021/03/21 11:20:25;;;;;;;10.00;7.63;;;6.80;78.40;;;;;;5122780;28;20837;-87
2021/03/21 11:22:51;;;;;;;9.33;6.23;;;6.80;78.40;;;;;;5119545;28;20443;-85
2021/03/21 11:25:30;;;;;;;10.57;7.60;;;6.80;79.00;;;;;;5116901;28;20940;-86
2021/03/21 11:28:17;;;;;;;7.93;6.43;;;6.90;80.10;;;;;;5116981;28;20470;-84
2021/03/21 11:30:52;;;;;;;9.97;6.87;;;7.20;78.80;;;;;;5116220;28;20478;-84
2021/03/21 11:33:25;;;;;;;10.60;7.20;;;7.50;78.90;;;;;;5117632;28;20434;-85
2021/03/21 11:35:51;;;;;;;9.73;6.87;;;7.70;77.40;;;;;;5117489;28;20435;-87
2021/03/21 11:38:29;;;;;;;8.67;6.57;;;7.70;76.50;;;;;;5117200;28;20524;-88
2021/03/21 11:40:59;;;;;;;9.43;6.43;;;7.90;75.50;;;;;;5117028;28;20782;-87
2021/03/21 11:43:28;;;;;;;10.60;6.80;;;7.80;75.10;;;;;;5117078;28;20918;-87
2021/03/21 11:46:12;;;;;;;12.00;6.50;;;7.70;75.40;;;;;;5116885;28;20481;-87
2021/03/21 11:48:39;;;;;;;8.80;6.53;;;7.70;77.00;;;;;;5116858;28;20974;-88
2021/03/21 11:51:09;;;;;;;9.70;6.87;;;7.60;76.40;;;;;;5116767;28;20467;-87
2021/03/21 11:53:38;;;;;;;8.23;6.07;;;7.50;75.90;;;;;;5116395;28;20986;-88
2021/03/21 11:56:13;;;;;;;7.93;6.10;;;7.50;76.40;;;;;;5116493;28;20572;-88
2021/03/21 11:58:43;;;;;;;8.30;6.90;;;7.60;76.60;;;;;;5116653;28;20483;-87
2021/03/21 12:01:17;;;;;;;7.47;5.67;;;7.50;75.70;;;;;;5116422;28;20434;-88
2021/03/21 12:03:46;;;;;;;10.63;6.40;;;7.50;76.60;;;;;;5116477;28;20431;-88
2021/03/21 12:06:23;;;;;;;7.87;5.90;;;7.40;78.00;;;;;;5116259;28;20431;-88
2021/03/21 12:08:49;;;;;;;10.47;5.97;;;7.40;78.10;;;;;;5116349;28;20433;-87
2021/03/21 12:11:19;;;;;;;10.40;5.67;;;7.40;78.40;;;;;;5116263;28;20467;-87
2021/03/21 12:13:46;;;;;;;7.90;5.70;;;7.30;79.20;;;;;;5116145;28;20431;-86
2021/03/21 12:16:36;;;;;;;7.80;5.43;;;7.30;79.60;;;;;;5116106;28;20902;-86
2021/03/21 12:19:04;;;;;;;7.00;5.43;;;7.20;80.40;;;;;;5116092;28;20457;-87
2021/03/21 12:21:35;;;;;;;6.10;4.70;;;7.10;80.70;;;;;;5116136;28;20428;-87
2021/03/21 12:24:05;;;;;;;4.17;3.77;;;7.00;81.70;;;;;;5116154;28;20427;-87
2021/03/21 12:26:49;;;;;;;7.60;4.30;;;7.00;82.50;;;;;;5115912;28;20431;-87
2021/03/21 12:29:34;;;;;;;4.43;4.03;;;7.00;83.20;;;;;;5115777;28;20543;-87
2021/03/21 12:32:29;;;;;;;4.60;3.70;;;7.00;84.70;;;;;;5115560;28;20929;-87
2021/03/21 12:34:56;;;;;;;4.27;3.30;;;6.90;84.70;;;;;;5115688;28;20456;-87
2021/03/21 12:37:26;;;;;;;2.80;2.40;;;6.90;87.40;;;;;;5115515;28;20450;-87
2021/03/21 12:40:07;;;;;;;4.33;2.50;;;6.70;88.20;;;;;;5115814;28;20439;-87
2021/03/21 12:42:35;;;;;;;3.10;2.80;;;6.80;89.90;;;;;;5115427;28;20411;-87
2021/03/21 12:45:09;;;;;;;2.80;2.57;;;6.90;90.20;;;;;;5115542;28;20434;-87
2021/03/21 12:47:38;;;;;;;3.00;2.70;;;7.00;90.80;;;;;;5115483;28;20954;-87
2021/03/21 12:50:28;;;;;;;1.90;1.50;;;7.30;91.20;;;;;;5115483;28;20512;-87
2021/03/21 12:52:54;;;;;;;3.77;2.30;;;7.40;92.00;;;;;;5115497;28;20500;-86
2021/03/21 12:55:20;;;;;;;2.53;2.23;;;7.60;92.20;;;;;;5115116;28;20474;-86
2021/03/21 12:57:47;;;;;;;2.20;2.00;;;7.60;93.50;;;;;;5115314;28;20512;-87
2021/03/21 13:00:17;;;;;;;2.13;1.90;;;7.80;93.10;;;;;;5114903;28;20925;-87
2021/03/21 13:02:45;;;;;;;2.50;2.13;;;7.90;93.20;;;;;;5115193;28;20435;-87
2021/03/21 13:05:18;;;;;;;4.50;2.57;;;7.90;93.30;;;;;;5115224;28;20898;-86
2021/03/21 13:07:45;;;;;;;3.07;2.67;;;7.90;93.10;;;;;;5115043;28;20548;-86
2021/03/21 13:10:12;;;;;;;2.90;2.23;;;8.00;93.50;;;;;;5114888;28;20471;-87
2021/03/21 13:12:39;;;;;;;2.40;2.20;;;8.00;93.40;;;;;;5114765;28;20432;-87
2021/03/21 13:15:07;;;;;;;2.50;2.30;;;8.00;93.70;;;;;;5114208;28;20458;-87
2021/03/21 13:17:33;;;;;;;2.40;2.03;;;8.10;93.90;;;;;;5114519;28;20993;-86
2021/03/21 13:20:00;;;;;;;3.00;2.57;;;8.10;93.90;;;;;;5114830;28;20431;-87
2021/03/21 13:22:26;;;;;;;3.80;2.70;;;8.00;93.70;;;;;;5114689;28;20413;-87
2021/03/21 13:24:53;;;;;;;2.83;2.63;;;7.80;94.20;;;;;;5115004;28;20435;-87
2021/03/21 13:27:19;;;;;;;2.60;2.20;;;7.80;94.30;;;;;;5115067;28;20470;-87
2021/03/21 13:29:45;;;;;;;2.50;2.40;;;7.70;95.20;;;;;;5114937;28;20432;-87
2021/03/21 13:32:11;;;;;;;5.53;3.50;;;7.60;95.00;;;;;;5114683;28;20815;-87
2021/03/21 13:34:38;;;;;;;2.63;2.27;;;7.40;95.70;;;;;;5114707;28;20423;-87
2021/03/21 13:37:05;;;;;;;2.87;2.57;;;7.40;96.00;;;;;;5114678;28;20524;-87
2021/03/21 13:39:31;;;;;;;2.97;2.70;;;7.50;96.50;;;;;;5114659;28;20423;-87
2021/03/21 13:41:58;;;;;;;3.73;3.23;;;7.60;96.50;;;;;;5114476;28;20419;-86